createdAt,value
2023-04-18T00:01:50.216Z,16.00
2023-04-18T00:04:51.978Z,19.65
2023-04-18T00:07:53.713Z,18.77
2023-04-18T00:10:55.370Z,20.00
2023-04-18T00:13:57.446Z,17.75
2023-04-18T00:16:59.198Z,19.63
2023-04-18T00:20:04.887Z,18.15
2023-04-18T00:23:07.762Z,16.73
2023-04-18T00:26:09.484Z,19.17
2023-04-18T00:29:11.487Z,18.23
2023-04-18T00:32:13.948Z,16.42
2023-04-18T00:35:15.845Z,15.82
2023-04-18T00:38:17.484Z,19.00
2023-04-18T00:41:19.832Z,16.52
2023-04-18T00:44:21.471Z,17.75
2023-04-18T00:47:23.173Z,20.23
2023-04-18T00:50:24.914Z,16.27
2023-04-18T00:53:26.712Z,18.58
2023-04-18T00:56:28.843Z,20.75
2023-04-18T00:59:30.465Z,20.80
2023-04-18T01:02:33.575Z,19.80
2023-04-18T01:05:36.285Z,19.17
2023-04-18T01:08:38.045Z,20.80
2023-04-18T01:11:39.806Z,20.83
2023-04-18T01:14:42.839Z,21.52
2023-04-18T01:17:44.553Z,25.23
2023-04-18T01:20:47.768Z,19.95
2023-04-18T01:23:49.437Z,22.63
2023-04-18T01:26:51.137Z,24.35
2023-04-18T01:29:52.808Z,20.92
2023-04-18T01:32:54.615Z,18.20
2023-04-18T01:35:56.258Z,17.77
2023-04-18T01:38:58.603Z,22.73
2023-04-18T01:42:01.952Z,20.40
2023-04-18T01:45:04.591Z,18.55
2023-04-18T01:48:06.440Z,18.65
2023-04-18T01:51:08.093Z,18.98
2023-04-18T01:54:09.808Z,17.15
2023-04-18T01:57:11.439Z,16.92
2023-04-18T02:00:13.566Z,20.45
2023-04-18T02:03:15.413Z,18.30
2023-04-18T02:06:17.173Z,16.73
2023-04-18T02:09:18.803Z,19.48
2023-04-18T02:12:20.952Z,21.38
2023-04-18T02:15:24.508Z,18.95
2023-04-18T02:18:27.073Z,19.65
2023-04-18T02:21:30.233Z,20.40
2023-04-18T02:24:31.872Z,17.85
2023-04-18T02:27:33.534Z,18.58
2023-04-18T02:30:35.341Z,19.92
2023-04-18T02:33:37.013Z,17.92
2023-04-18T02:36:38.686Z,22.70
2023-04-18T02:39:40.452Z,19.73
2023-04-18T02:42:42.085Z,18.45
2023-04-18T02:45:43.811Z,19.50
2023-04-18T02:48:45.559Z,22.13
2023-04-18T02:51:47.237Z,19.60
2023-04-18T02:54:48.908Z,20.05
2023-04-18T02:57:50.579Z,18.95
2023-04-18T03:00:56.166Z,20.92
2023-04-18T03:03:57.882Z,25.52
2023-04-18T03:06:59.538Z,20.75
2023-04-18T03:10:01.172Z,18.70
2023-04-18T03:13:02.916Z,19.45
2023-04-18T03:16:04.993Z,16.20
2023-04-18T03:19:06.634Z,18.55
2023-04-18T03:22:09.119Z,20.52
2023-04-18T03:25:11.202Z,21.17
2023-04-18T03:28:12.920Z,16.88
2023-04-18T03:31:14.616Z,19.05
2023-04-18T03:34:16.365Z,16.10
2023-04-18T03:37:18.037Z,18.75
2023-04-18T03:40:19.726Z,16.75
2023-04-18T03:43:21.374Z,18.48
2023-04-18T03:46:24.592Z,20.15
2023-04-18T03:49:26.324Z,15.38
2023-04-18T03:52:29.706Z,16.73
2023-04-18T03:55:31.559Z,20.63
2023-04-18T03:58:33.216Z,18.17
2023-04-18T04:01:34.922Z,18.25
2023-04-18T04:04:37.051Z,17.77
2023-04-18T04:07:38.785Z,15.90
2023-04-18T04:10:40.499Z,19.65
2023-04-18T04:13:42.232Z,18.92
2023-04-18T04:16:44.019Z,16.30
2023-04-18T04:19:45.677Z,16.85
2023-04-18T04:22:47.356Z,13.18
2023-04-18T04:25:49.017Z,21.27
2023-04-18T04:28:51.651Z,20.40
2023-04-18T04:31:53.396Z,18.60
2023-04-18T04:34:56.208Z,18.40
2023-04-18T04:37:58.867Z,20.45
2023-04-18T04:41:00.707Z,19.88
2023-04-18T04:44:02.369Z,14.88
2023-04-18T04:47:04.076Z,17.67
2023-04-18T04:50:07.727Z,16.30
2023-04-18T04:53:09.421Z,16.95
2023-04-18T04:56:11.145Z,19.90
2023-04-18T04:59:12.958Z,17.90
2023-04-18T05:02:14.870Z,17.77
2023-04-18T05:05:16.645Z,21.20
2023-04-18T05:08:18.348Z,19.13
2023-04-18T05:11:21.009Z,22.45
2023-04-18T05:14:22.904Z,18.23
2023-04-18T05:17:24.670Z,18.50
2023-04-18T05:20:26.312Z,18.50
2023-04-18T05:23:27.966Z,21.05
2023-04-18T05:26:29.611Z,17.17
2023-04-18T05:29:31.268Z,23.67
2023-04-18T05:32:33.098Z,19.73
2023-04-18T05:35:34.855Z,19.08
2023-04-18T05:38:36.536Z,19.48
2023-04-18T05:41:38.276Z,25.27
2023-04-18T05:44:39.958Z,23.10
2023-04-18T05:47:41.723Z,18.70
2023-04-18T05:50:43.392Z,24.70
2023-04-18T05:53:45.077Z,20.65
2023-04-18T05:56:46.717Z,22.60
2023-04-18T05:59:48.637Z,24.27
2023-04-18T06:02:50.841Z,25.70
2023-04-18T06:05:52.715Z,22.15
2023-04-18T06:08:54.567Z,20.98
2023-04-18T06:11:57.805Z,21.85
2023-04-18T06:14:59.550Z,14.70
2023-04-18T06:18:01.389Z,27.27
2023-04-18T06:21:03.112Z,20.08
2023-04-18T06:24:04.919Z,20.85
2023-04-18T06:30:09.449Z,21.95
2023-04-18T06:33:11.317Z,21.67
2023-04-18T06:36:13.100Z,22.80
2023-04-18T06:39:14.913Z,24.45
2023-04-18T06:42:16.560Z,21.38
2023-04-18T06:45:18.281Z,25.55
2023-04-18T06:48:19.956Z,20.10
2023-04-18T06:51:21.655Z,24.83
2023-04-18T06:54:23.381Z,19.80
2023-04-18T06:57:26.021Z,26.58
2023-04-18T07:00:27.773Z,20.48
2023-04-18T07:03:29.598Z,25.15
2023-04-18T07:06:32.803Z,24.63
2023-04-18T07:09:34.459Z,20.60
2023-04-18T07:12:36.343Z,20.38
2023-04-18T07:15:38.172Z,20.52
2023-04-18T07:18:39.838Z,27.33
2023-04-18T07:21:43.640Z,22.00
2023-04-18T07:24:45.501Z,20.88
2023-04-18T07:27:48.509Z,20.05
2023-04-18T07:30:50.276Z,24.92
2023-04-18T07:33:52.315Z,21.38
2023-04-18T07:36:53.992Z,20.88
2023-04-18T07:39:55.678Z,26.58
2023-04-18T07:42:57.381Z,23.10
2023-04-18T07:45:59.181Z,19.80
2023-04-18T07:49:02.340Z,21.40
2023-04-18T07:52:04.307Z,19.42
2023-04-18T07:55:06.762Z,18.20
2023-04-18T07:58:08.891Z,16.40
2023-04-18T08:01:14.004Z,20.00
2023-04-18T08:04:15.784Z,17.23
2023-04-18T08:07:17.805Z,12.55
2023-04-18T08:10:20.913Z,18.60
2023-04-18T08:13:24.225Z,15.57
2023-04-18T08:16:26.304Z,16.80
2023-04-18T08:19:28.139Z,17.27
2023-04-18T08:22:29.844Z,13.70
2023-04-18T08:25:31.757Z,17.80
2023-04-18T08:28:33.597Z,15.55
2023-04-18T08:31:35.323Z,11.10
2023-04-18T08:34:38.052Z,12.00
2023-04-18T08:37:39.786Z,12.60
2023-04-18T08:40:41.646Z,14.15
2023-04-18T08:43:47.290Z,10.27
2023-04-18T08:46:48.998Z,8.30
2023-04-18T08:49:52.195Z,9.30
2023-04-18T08:52:54.293Z,13.02
2023-04-18T08:55:57.331Z,10.88
2023-04-18T08:59:00.369Z,9.98
2023-04-18T09:02:03.372Z,11.70
2023-04-18T09:05:11.765Z,13.30
2023-04-18T09:08:24.237Z,9.15
2023-04-18T09:11:28.826Z,14.20
2023-04-18T09:14:32.850Z,9.82
2023-04-18T09:17:42.263Z,15.10
2023-04-18T09:23:47.437Z,9.68
2023-04-18T09:26:54.005Z,20.65
2023-04-18T09:29:57.823Z,11.65
2023-04-18T09:33:00.403Z,10.02
2023-04-18T09:36:24.985Z,8.07
2023-04-18T09:39:27.127Z,8.60
2023-04-18T09:42:29.765Z,7.75
2023-04-18T09:45:31.414Z,10.18
2023-04-18T09:48:33.074Z,6.90
2023-04-18T09:51:34.811Z,9.40
2023-04-18T09:54:36.480Z,11.13
2023-04-18T09:57:41.222Z,13.10
2023-04-18T10:00:44.978Z,8.90
2023-04-18T10:03:48.559Z,10.80
2023-04-18T10:06:51.407Z,9.57
2023-04-18T10:09:53.225Z,7.00
2023-04-18T10:12:57.048Z,7.75
2023-04-18T10:15:58.761Z,6.93
2023-04-18T10:19:19.905Z,9.52
2023-04-18T10:22:26.720Z,7.45
2023-04-18T10:25:40.985Z,7.10
2023-04-18T10:28:53.496Z,9.77
2023-04-18T10:31:55.675Z,6.45
2023-04-18T10:34:59.083Z,5.70
2023-04-18T10:38:00.738Z,5.07
2023-04-18T10:41:25.415Z,7.53
2023-04-18T10:44:27.558Z,6.35
2023-04-18T10:47:29.427Z,5.50
2023-04-18T10:50:31.223Z,8.13
2023-04-18T10:53:32.918Z,5.93
2023-04-18T10:56:34.636Z,5.07
2023-04-18T10:59:41.388Z,5.22
2023-04-18T11:02:50.914Z,4.22
2023-04-18T11:05:52.635Z,5.93
2023-04-18T11:09:11.856Z,7.60
2023-04-18T11:12:13.501Z,4.65
2023-04-18T11:15:24.841Z,4.93
2023-04-18T11:18:26.499Z,4.55
2023-04-18T11:21:30.461Z,5.78
2023-04-18T11:24:32.701Z,9.18
2023-04-18T11:27:34.448Z,7.50
2023-04-18T11:30:37.580Z,8.90
2023-04-18T11:33:39.529Z,6.25
2023-04-18T11:36:42.183Z,7.45
2023-04-18T11:39:44.545Z,7.18
2023-04-18T11:42:46.250Z,11.10
2023-04-18T11:45:54.989Z,10.10
2023-04-18T11:48:56.830Z,10.35
2023-04-18T11:52:01.524Z,9.23
2023-04-18T11:55:23.170Z,6.97
2023-04-18T11:58:31.921Z,8.32
2023-04-18T12:01:33.584Z,7.60
2023-04-18T12:04:59.533Z,7.85
2023-04-18T12:08:18.513Z,8.25
2023-04-18T12:11:21.550Z,9.43
2023-04-18T12:14:23.261Z,7.75
2023-04-18T12:17:28.578Z,8.43
2023-04-18T12:20:37.881Z,12.93
2023-04-18T12:23:40.346Z,7.63
2023-04-18T12:26:45.679Z,9.75
2023-04-18T12:29:47.306Z,7.65
2023-04-18T12:32:55.167Z,8.82
2023-04-18T12:35:57.398Z,7.05
2023-04-18T12:38:59.115Z,8.80
2023-04-18T12:42:00.956Z,10.38
2023-04-18T12:45:07.556Z,7.13
2023-04-18T12:48:09.447Z,8.02
2023-04-18T12:51:11.129Z,10.88
2023-04-18T12:54:13.003Z,7.50
2023-04-18T12:57:14.783Z,6.85
2023-04-18T13:00:16.515Z,8.38
2023-04-18T13:03:18.439Z,10.02
2023-04-18T13:06:20.365Z,5.00
2023-04-18T13:09:22.135Z,8.02
2023-04-18T13:12:23.768Z,7.57
2023-04-18T13:15:27.251Z,9.00
2023-04-18T13:18:29.057Z,7.80
2023-04-18T13:21:31.268Z,10.70
2023-04-18T13:24:32.996Z,8.95
2023-04-18T13:27:34.661Z,9.13
2023-04-18T13:30:36.463Z,6.32
2023-04-18T13:33:39.438Z,8.88
2023-04-18T13:36:41.124Z,6.85
2023-04-18T13:39:43.418Z,6.55
2023-04-18T13:42:45.167Z,8.68
2023-04-18T13:45:47.117Z,6.82
2023-04-18T13:48:48.842Z,7.63
2023-04-18T13:51:53.327Z,7.38
2023-04-18T13:54:55.190Z,5.13
2023-04-18T13:57:56.913Z,4.78
2023-04-18T14:00:58.611Z,6.25
2023-04-18T14:04:00.784Z,6.07
2023-04-18T14:07:06.292Z,8.35
2023-04-18T14:10:08.420Z,10.20
2023-04-18T14:13:10.099Z,7.22
2023-04-18T14:16:11.883Z,3.42
2023-04-18T14:19:13.992Z,5.28
2023-04-18T14:22:15.804Z,7.30
2023-04-18T14:25:17.706Z,6.50
2023-04-18T14:28:23.596Z,4.07
2023-04-18T14:31:25.989Z,9.00
2023-04-18T14:34:27.709Z,7.38
2023-04-18T14:37:29.371Z,7.72
2023-04-18T14:40:32.736Z,4.70
2023-04-18T14:43:34.776Z,8.73
2023-04-18T14:46:36.677Z,7.07
2023-04-18T14:49:38.412Z,6.40
2023-04-18T14:52:40.459Z,4.70
2023-04-18T14:55:42.274Z,10.95
2023-04-18T14:58:44.950Z,6.90
2023-04-18T15:01:46.748Z,3.88
2023-04-18T15:04:48.970Z,8.43
2023-04-18T15:07:53.656Z,9.23
2023-04-18T15:10:55.281Z,6.38
2023-04-18T15:13:57.186Z,5.97
2023-04-18T15:16:59.834Z,6.78
2023-04-18T15:20:01.952Z,7.75
2023-04-18T15:23:03.765Z,6.32
2023-04-18T15:26:06.124Z,7.07
2023-04-18T15:29:07.886Z,9.52
2023-04-18T15:32:10.175Z,12.73
2023-04-18T15:35:12.130Z,9.93
2023-04-18T15:38:13.951Z,11.00
2023-04-18T15:41:18.505Z,11.57
2023-04-18T15:44:23.739Z,10.80
2023-04-18T15:47:27.076Z,14.75
2023-04-18T15:53:31.549Z,9.20
2023-04-18T15:56:33.869Z,11.95
2023-04-18T15:59:36.162Z,10.65
2023-04-18T16:02:37.894Z,11.45
2023-04-18T16:05:39.603Z,10.10
2023-04-18T16:08:41.388Z,8.75
2023-04-18T16:11:43.064Z,12.93
2023-04-18T16:14:44.839Z,12.27
2023-04-18T16:17:47.623Z,11.80
2023-04-18T16:20:49.480Z,12.02
2023-04-18T16:23:51.134Z,13.68
2023-04-18T16:26:53.532Z,11.10
2023-04-18T16:29:55.174Z,12.23
2023-04-18T16:32:57.002Z,10.30
2023-04-18T16:36:02.399Z,12.88
2023-04-18T16:39:04.769Z,13.57
2023-04-18T16:42:06.484Z,12.70
2023-04-18T16:45:08.511Z,10.73
2023-04-18T16:48:10.290Z,12.27
2023-04-18T16:51:13.133Z,10.52
2023-04-18T16:54:14.891Z,11.95
2023-04-18T16:57:17.749Z,13.80
2023-04-18T17:00:19.435Z,10.52
2023-04-18T17:03:21.255Z,10.80
2023-04-18T17:06:24.987Z,12.32
2023-04-18T17:09:26.786Z,12.43
2023-04-18T17:12:28.422Z,10.48
2023-04-18T17:15:30.709Z,13.25
2023-04-18T17:18:32.587Z,13.25
2023-04-18T17:21:34.974Z,11.82
2023-04-18T17:24:36.662Z,11.25
2023-04-18T17:27:40.243Z,11.52
2023-04-18T17:30:42.102Z,15.85
2023-04-18T17:33:44.508Z,14.07
2023-04-18T17:36:46.631Z,10.18
2023-04-18T17:39:49.284Z,13.20
2023-04-18T17:42:51.049Z,12.55
2023-04-18T17:45:52.938Z,12.65
2023-04-18T17:48:54.665Z,11.20
2023-04-18T17:51:56.318Z,12.10
2023-04-18T17:54:59.026Z,9.15
2023-04-18T17:58:00.687Z,8.88
2023-04-18T18:01:02.482Z,11.00
2023-04-18T18:04:04.438Z,12.15
2023-04-18T18:07:06.218Z,7.88
2023-04-18T18:10:08.896Z,13.23
2023-04-18T18:13:10.561Z,10.82
2023-04-18T18:16:12.760Z,12.35
2023-04-18T18:19:15.044Z,13.23
2023-04-18T18:22:17.730Z,9.57
2023-04-18T18:25:20.638Z,11.52
2023-04-18T18:28:22.341Z,11.07
2023-04-18T18:31:24.919Z,9.77
2023-04-18T18:34:27.676Z,11.82
2023-04-18T18:37:29.336Z,11.73
2023-04-18T18:40:30.992Z,9.65
2023-04-18T18:43:32.671Z,12.77
2023-04-18T18:46:35.318Z,14.68
2023-04-18T18:49:37.431Z,15.38
2023-04-18T18:52:40.818Z,10.43
2023-04-18T18:55:42.636Z,11.48
2023-04-18T18:58:44.365Z,8.93
2023-04-18T19:01:46.490Z,13.30
2023-04-18T19:04:48.334Z,12.23
2023-04-18T19:07:51.429Z,11.82
2023-04-18T19:10:53.119Z,10.88
2023-04-18T19:13:54.938Z,9.35
2023-04-18T19:16:57.935Z,10.82
2023-04-18T19:20:01.328Z,13.57
2023-04-18T19:26:05.771Z,10.85
2023-04-18T19:29:07.837Z,10.07
2023-04-18T19:32:09.814Z,11.07
2023-04-18T19:35:13.211Z,11.52
2023-04-18T19:41:17.376Z,18.02
2023-04-18T19:44:19.021Z,15.13
2023-04-18T19:47:22.590Z,15.50
2023-04-18T19:50:24.474Z,16.17
2023-04-18T19:53:26.227Z,15.25
2023-04-18T19:56:28.085Z,13.32
2023-04-18T19:59:29.784Z,16.27
2023-04-18T20:02:31.565Z,12.18
2023-04-18T20:05:33.382Z,15.73
2023-04-18T20:08:41.344Z,12.90
2023-04-18T20:11:43.495Z,12.98
2023-04-18T20:14:45.220Z,13.77
2023-04-18T20:17:47.031Z,12.18
2023-04-18T20:20:48.689Z,12.18
2023-04-18T20:23:50.447Z,14.13
2023-04-18T20:26:52.301Z,15.63
2023-04-18T20:29:56.039Z,12.57
2023-04-18T20:32:58.890Z,15.38
2023-04-18T20:36:00.924Z,13.40
2023-04-18T20:39:03.411Z,9.55
2023-04-18T20:42:05.296Z,13.07
2023-04-18T20:45:10.873Z,15.25
2023-04-18T20:48:12.669Z,13.88
2023-04-18T20:51:14.434Z,22.15
2023-04-18T20:54:16.505Z,11.32
2023-04-18T20:57:19.374Z,14.25
2023-04-18T21:00:21.099Z,12.48
2023-04-18T21:03:22.913Z,11.23
2023-04-18T21:06:24.961Z,14.63
2023-04-18T21:09:26.653Z,18.83
2023-04-18T21:12:28.351Z,14.63
2023-04-18T21:15:31.127Z,16.15
2023-04-18T21:18:32.915Z,15.52
2023-04-18T21:21:34.834Z,16.10
2023-04-18T21:24:36.499Z,12.20
2023-04-18T21:27:38.220Z,16.70
2023-04-18T21:30:39.894Z,14.98
2023-04-18T21:33:41.534Z,15.35
2023-04-18T21:36:43.315Z,14.52
2023-04-18T21:39:45.164Z,14.23
2023-04-18T21:42:48.678Z,18.35
2023-04-18T21:45:51.538Z,15.43
2023-04-18T21:48:53.192Z,16.17
2023-04-18T21:51:55.037Z,15.75
2023-04-18T21:54:56.837Z,18.65
2023-04-18T21:57:59.061Z,13.05
2023-04-18T22:01:00.837Z,21.52
2023-04-18T22:04:02.898Z,16.42
2023-04-18T22:07:04.715Z,17.15
2023-04-18T22:10:07.977Z,15.60
2023-04-18T22:13:10.016Z,19.70
2023-04-18T22:16:12.015Z,15.80
2023-04-18T22:19:14.106Z,15.00
2023-04-18T22:22:15.833Z,16.17
2023-04-18T22:25:17.629Z,17.08
2023-04-18T22:28:19.696Z,18.50
2023-04-18T22:31:21.447Z,17.10
2023-04-18T22:34:23.142Z,18.50
2023-04-18T22:37:24.814Z,21.92
2023-04-18T22:40:26.994Z,13.85
2023-04-18T22:43:28.687Z,21.38
2023-04-18T22:46:30.531Z,17.33
2023-04-18T22:49:33.254Z,16.50
2023-04-18T22:52:34.992Z,15.27
2023-04-18T22:55:43.919Z,19.65
2023-04-18T22:58:45.659Z,17.70
2023-04-18T23:01:47.337Z,17.60
2023-04-18T23:04:49.459Z,22.35
2023-04-18T23:07:51.601Z,17.15
2023-04-18T23:10:53.235Z,15.93
2023-04-18T23:13:54.885Z,16.38
2023-04-18T23:16:56.806Z,15.63
2023-04-18T23:19:58.461Z,18.60
2023-04-18T23:23:00.560Z,20.23
2023-04-18T23:26:02.346Z,19.10
2023-04-18T23:29:04.053Z,20.92
2023-04-18T23:32:06.306Z,18.75
2023-04-18T23:35:08.366Z,16.95
2023-04-18T23:38:10.161Z,16.08
2023-04-18T23:41:11.847Z,19.95
2023-04-18T23:44:13.830Z,20.77
2023-04-18T23:47:17.157Z,21.33
2023-04-18T23:50:19.016Z,25.58
2023-04-18T23:53:21.396Z,18.17
2023-04-18T23:56:23.270Z,17.52
2023-04-18T23:59:24.994Z,25.17
